VSP1087 SBJP-SBMO
Flight info
| Callsign | VSP1087 |
|---|---|
| Flight time | N/A |
| Altitude | 22000 |
| Route | 071552S0344811W DCT 075630S0344909W 085136S0350722W DCT 092508S0353007W |
| Aircraft | B738/M-SDE2E3FGHIRWXY/LB1 |
Departure
| Time | 2026-05-01 13:44 |
|---|---|
| Airport | Presidente Castro Pinto International Airport (SBJP) |
Arrival
| Time | N/A |
|---|---|
| Airport | Zumbi dos Palmares International Airport (SBMO) |
| Time | Latitude | Longitude | Altitude | Speed | Heading |
|---|---|---|---|---|---|
| 2026-05-01 13:30 | -7.14710 | -34.94826 | 222 ft | 0 kts | 43° |
| 2026-05-01 13:31 | -7.14721 | -34.94836 | 222 ft | 2 kts | 43° |
| 2026-05-01 13:32 | -7.14736 | -34.94861 | 222 ft | 2 kts | 93° |
| 2026-05-01 13:33 | -7.14725 | -34.94883 | 222 ft | 0 kts | 134° |
| 2026-05-01 13:35 | -7.14761 | -34.94865 | 222 ft | 1 kts | 200° |
| 2026-05-01 13:35 | -7.14772 | -34.94873 | 222 ft | 2 kts | 224° |
| 2026-05-01 13:35 | -7.14773 | -34.94917 | 222 ft | 4 kts | 305° |
| 2026-05-01 13:36 | -7.14752 | -34.94940 | 222 ft | 5 kts | 316° |
| 2026-05-01 13:36 | -7.14726 | -34.94969 | 222 ft | 4 kts | 295° |
| 2026-05-01 13:36 | -7.14734 | -34.95012 | 222 ft | 3 kts | 234° |
| 2026-05-01 13:37 | -7.14752 | -34.95033 | 222 ft | 4 kts | 226° |
| 2026-05-01 13:37 | -7.14781 | -34.95064 | 222 ft | 7 kts | 225° |
| 2026-05-01 13:37 | -7.14806 | -34.95105 | 222 ft | 6 kts | 277° |
| 2026-05-01 13:37 | -7.14779 | -34.95151 | 222 ft | 8 kts | 317° |
| 2026-05-01 13:38 | -7.14683 | -34.95245 | 222 ft | 9 kts | 315° |
| 2026-05-01 13:38 | -7.14636 | -34.95293 | 222 ft | 9 kts | 314° |
| 2026-05-01 13:38 | -7.14591 | -34.95338 | 222 ft | 8 kts | 316° |
| 2026-05-01 13:39 | -7.14547 | -34.95380 | 222 ft | 8 kts | 316° |
| 2026-05-01 13:39 | -7.14506 | -34.95421 | 222 ft | 9 kts | 315° |
| 2026-05-01 13:39 | -7.14458 | -34.95468 | 222 ft | 9 kts | 316° |
| 2026-05-01 13:39 | -7.14408 | -34.95518 | 222 ft | 11 kts | 315° |
| 2026-05-01 13:40 | -7.14349 | -34.95577 | 222 ft | 11 kts | 315° |
| 2026-05-01 13:40 | -7.14292 | -34.95633 | 222 ft | 11 kts | 315° |
| 2026-05-01 13:40 | -7.14235 | -34.95691 | 222 ft | 11 kts | 315° |
| 2026-05-01 13:40 | -7.14179 | -34.95746 | 222 ft | 10 kts | 316° |
| 2026-05-01 13:41 | -7.14124 | -34.95789 | 222 ft | 8 kts | 334° |
| 2026-05-01 13:41 | -7.14072 | -34.95806 | 222 ft | 6 kts | 341° |
| 2026-05-01 13:41 | -7.14044 | -34.95831 | 222 ft | 4 kts | 294° |
| 2026-05-01 13:41 | -7.14049 | -34.95849 | 222 ft | 1 kts | 218° |
| 2026-05-01 13:42 | -7.14059 | -34.95851 | 222 ft | 1 kts | 176° |
| 2026-05-01 13:42 | -7.14068 | -34.95848 | 222 ft | 2 kts | 157° |
| 2026-05-01 13:42 | -7.14084 | -34.95838 | 222 ft | 3 kts | 140° |
| 2026-05-01 13:42 | -7.14095 | -34.95827 | 222 ft | 0 kts | 135° |
| 2026-05-01 13:43 | -7.14129 | -34.95794 | 222 ft | 28 kts | 136° |
| 2026-05-01 13:43 | -7.14454 | -34.95475 | 222 ft | 101 kts | 137° |
| 2026-05-01 13:43 | -7.15109 | -34.94826 | 224 ft | 159 kts | 138° |
| 2026-05-01 13:43 | -7.15965 | -34.93973 | 559 ft | 181 kts | 137° |
| 2026-05-01 13:44 | -7.16894 | -34.93050 | 1024 ft | 201 kts | 135° |
| 2026-05-01 13:44 | -7.17699 | -34.91790 | 1564 ft | 218 kts | 111° |
| 2026-05-01 13:44 | -7.18070 | -34.90494 | 2821 ft | 191 kts | 110° |
| 2026-05-01 13:44 | -7.18673 | -34.89167 | 2874 ft | 224 kts | 133° |
| 2026-05-01 13:45 | -7.19866 | -34.88089 | 3366 ft | 238 kts | 142° |
| 2026-05-01 13:45 | -7.21124 | -34.86917 | 3872 ft | 257 kts | 135° |
| 2026-05-01 13:45 | -7.22279 | -34.85585 | 4372 ft | 268 kts | 131° |
| 2026-05-01 13:45 | -7.23439 | -34.84125 | 4878 ft | 271 kts | 130° |
| 2026-05-01 13:46 | -7.24618 | -34.82630 | 5385 ft | 273 kts | 133° |
| 2026-05-01 13:46 | -7.26025 | -34.81374 | 5962 ft | 269 kts | 149° |
| 2026-05-01 13:46 | -7.27701 | -34.80587 | 6591 ft | 271 kts | 166° |
| 2026-05-01 13:46 | -7.29546 | -34.80313 | 7223 ft | 272 kts | 179° |
| 2026-05-01 13:47 | -7.31439 | -34.80332 | 7858 ft | 274 kts | 183° |
| 2026-05-01 13:47 | -7.33317 | -34.80420 | 8475 ft | 277 kts | 183° |
| 2026-05-01 13:47 | -7.35213 | -34.80497 | 9092 ft | 279 kts | 182° |
| 2026-05-01 13:47 | -7.37165 | -34.80557 | 9720 ft | 282 kts | 182° |
| 2026-05-01 13:48 | -7.39116 | -34.80608 | 10344 ft | 284 kts | 182° |
| 2026-05-01 13:48 | -7.41093 | -34.80656 | 10829 ft | 296 kts | 182° |
| 2026-05-01 13:48 | -7.43222 | -34.80708 | 10981 ft | 321 kts | 182° |
| 2026-05-01 13:48 | -7.45530 | -34.80763 | 11118 ft | 344 kts | 182° |
| 2026-05-01 13:49 | -7.47870 | -34.80818 | 11686 ft | 352 kts | 182° |
| 2026-05-01 13:49 | -7.50287 | -34.80875 | 12372 ft | 356 kts | 182° |
| 2026-05-01 13:49 | -7.52697 | -34.80932 | 13080 ft | 359 kts | 182° |
| 2026-05-01 13:49 | -7.55160 | -34.80990 | 13787 ft | 363 kts | 182° |
| 2026-05-01 13:50 | -7.57377 | -34.81043 | 14412 ft | 366 kts | 182° |
| 2026-05-01 13:50 | -7.62397 | -34.81162 | 15794 ft | 373 kts | 182° |
| 2026-05-01 13:50 | -7.64943 | -34.81223 | 16446 ft | 377 kts | 183° |
| 2026-05-01 13:51 | -7.67509 | -34.81284 | 17034 ft | 380 kts | 183° |
| 2026-05-01 13:51 | -7.70106 | -34.81346 | 17624 ft | 384 kts | 183° |
| 2026-05-01 13:51 | -7.72681 | -34.81407 | 18177 ft | 388 kts | 183° |
| 2026-05-01 13:51 | -7.75352 | -34.81471 | 18737 ft | 391 kts | 183° |
| 2026-05-01 13:52 | -7.77942 | -34.81533 | 19257 ft | 395 kts | 184° |
| 2026-05-01 13:52 | -7.80641 | -34.81597 | 19776 ft | 398 kts | 184° |
| 2026-05-01 13:52 | -7.83366 | -34.81662 | 20287 ft | 402 kts | 184° |
| 2026-05-01 13:52 | -7.86089 | -34.81728 | 20773 ft | 406 kts | 184° |
| 2026-05-01 13:53 | -7.88803 | -34.81840 | 21233 ft | 408 kts | 187° |
| 2026-05-01 13:53 | -7.94304 | -34.82689 | 22008 ft | 411 kts | 194° |
| 2026-05-01 13:53 | -7.96959 | -34.83327 | 22020 ft | 417 kts | 197° |
| 2026-05-01 13:54 | -7.99669 | -34.84067 | 22024 ft | 423 kts | 198° |
| 2026-05-01 13:54 | -8.02457 | -34.84884 | 22022 ft | 428 kts | 199° |
| 2026-05-01 13:54 | -8.05248 | -34.85738 | 22021 ft | 433 kts | 199° |
| 2026-05-01 13:54 | -8.08031 | -34.86612 | 22019 ft | 437 kts | 199° |
| 2026-05-01 13:55 | -8.10827 | -34.87504 | 22018 ft | 438 kts | 200° |
| 2026-05-01 13:55 | -8.13689 | -34.88426 | 22019 ft | 437 kts | 200° |
| 2026-05-01 13:55 | -8.16551 | -34.89354 | 22019 ft | 436 kts | 200° |
| 2026-05-01 13:55 | -8.19363 | -34.90270 | 22020 ft | 436 kts | 200° |
| 2026-05-01 13:56 | -8.22222 | -34.91205 | 22020 ft | 436 kts | 200° |
| 2026-05-01 13:56 | -8.25088 | -34.92144 | 22019 ft | 437 kts | 200° |
| 2026-05-01 13:56 | -8.27933 | -34.93079 | 22019 ft | 437 kts | 200° |
| 2026-05-01 13:56 | -8.30806 | -34.94024 | 22020 ft | 437 kts | 200° |
| 2026-05-01 13:57 | -8.33660 | -34.94965 | 22020 ft | 437 kts | 200° |
| 2026-05-01 13:57 | -8.36545 | -34.95916 | 22020 ft | 437 kts | 200° |
| 2026-05-01 13:57 | -8.39434 | -34.96869 | 22020 ft | 437 kts | 200° |
| 2026-05-01 13:57 | -8.42284 | -34.97809 | 22020 ft | 437 kts | 200° |
| 2026-05-01 13:58 | -8.45176 | -34.98764 | 22020 ft | 437 kts | 200° |
| 2026-05-01 13:58 | -8.48010 | -34.99701 | 22020 ft | 437 kts | 200° |
| 2026-05-01 13:58 | -8.50876 | -35.00648 | 22020 ft | 437 kts | 200° |
| 2026-05-01 13:58 | -8.53753 | -35.01599 | 22020 ft | 437 kts | 200° |
| 2026-05-01 13:59 | -8.56506 | -35.02509 | 22020 ft | 437 kts | 200° |
| 2026-05-01 13:59 | -8.59429 | -35.03476 | 22019 ft | 437 kts | 200° |
| 2026-05-01 13:59 | -8.62303 | -35.04427 | 22020 ft | 437 kts | 200° |
| 2026-05-01 13:59 | -8.65151 | -35.05369 | 22020 ft | 437 kts | 200° |
| 2026-05-01 14:00 | -8.68007 | -35.06314 | 22020 ft | 437 kts | 200° |
| 2026-05-01 14:00 | -8.70898 | -35.07271 | 22020 ft | 437 kts | 200° |
| 2026-05-01 14:00 | -8.73771 | -35.08223 | 22020 ft | 437 kts | 200° |
| 2026-05-01 14:00 | -8.76657 | -35.09179 | 22020 ft | 437 kts | 200° |
| 2026-05-01 14:01 | -8.79497 | -35.10119 | 22020 ft | 437 kts | 200° |
| 2026-05-01 14:01 | -8.82268 | -35.11209 | 22019 ft | 435 kts | 206° |
| 2026-05-01 14:01 | -8.84923 | -35.12523 | 22014 ft | 423 kts | 210° |
| 2026-05-01 14:01 | -8.87406 | -35.13897 | 22022 ft | 400 kts | 211° |
| 2026-05-01 14:02 | -8.89769 | -35.15281 | 22028 ft | 386 kts | 212° |
| 2026-05-01 14:02 | -8.92044 | -35.16672 | 22032 ft | 387 kts | 213° |
| 2026-05-01 14:02 | -8.94285 | -35.18092 | 22035 ft | 391 kts | 214° |
| 2026-05-01 14:02 | -8.96527 | -35.19547 | 22036 ft | 392 kts | 214° |
| 2026-05-01 14:03 | -8.98719 | -35.20992 | 22038 ft | 391 kts | 215° |
| 2026-05-01 14:03 | -9.00896 | -35.22440 | 22042 ft | 392 kts | 215° |
| 2026-05-01 14:03 | -9.03139 | -35.23940 | 21993 ft | 387 kts | 215° |
| 2026-05-01 14:03 | -9.05346 | -35.25420 | 21523 ft | 381 kts | 215° |
| 2026-05-01 14:04 | -9.07484 | -35.26860 | 20957 ft | 377 kts | 214° |
| 2026-05-01 14:04 | -9.09614 | -35.28296 | 20408 ft | 373 kts | 214° |
| 2026-05-01 14:04 | -9.11739 | -35.29732 | 19861 ft | 370 kts | 214° |
| 2026-05-01 14:04 | -9.13822 | -35.31141 | 19320 ft | 366 kts | 214° |
| 2026-05-01 14:05 | -9.15910 | -35.32555 | 18779 ft | 363 kts | 214° |
| 2026-05-01 14:05 | -9.17987 | -35.33962 | 18238 ft | 359 kts | 214° |
| 2026-05-01 14:05 | -9.19928 | -35.35278 | 17732 ft | 356 kts | 214° |
| 2026-05-01 14:05 | -9.21944 | -35.36645 | 17203 ft | 353 kts | 214° |
| 2026-05-01 14:06 | -9.23937 | -35.37997 | 16677 ft | 350 kts | 214° |
| 2026-05-01 14:06 | -9.25879 | -35.39315 | 16165 ft | 347 kts | 213° |
| 2026-05-01 14:06 | -9.27837 | -35.40645 | 15646 ft | 345 kts | 213° |
| 2026-05-01 14:06 | -9.29798 | -35.41976 | 15127 ft | 343 kts | 213° |
| 2026-05-01 14:07 | -9.31683 | -35.43257 | 14625 ft | 341 kts | 213° |
| 2026-05-01 14:07 | -9.33629 | -35.44579 | 14104 ft | 340 kts | 213° |
| 2026-05-01 14:07 | -9.35528 | -35.45933 | 13566 ft | 339 kts | 218° |
| 2026-05-01 14:08 | -9.38582 | -35.49297 | 12433 ft | 341 kts | 235° |